Current | Forecast
Updated: 10:30 PM CET on January 17, 2018
Observed at Vigo, Spain
Temperature 8°C
Windchill 6°C
Humidity 81%
Dew Point 5°C
Wind North at 11 km/h
Pressure 1029 hPa (Steady)
Conditions Clear
Visibility -
UV N/A
Clouds
Yesterday's Maximum 12°C
Yesterday's Minimum 9°C approx.
Yesterday's Heating Degree Days 14 approx.
Sunrise9:01 AM CET
Sunset6:29 PM CET
Moon Rise9:07 AM CET
Moon Set7:03 PM CET
Moon PhaseMoon Phase
New Moon
Raw METARMETAR LEVX 172130Z 01006KT CAVOK 08/05 Q1029 NOSIG


Monday
. High: 60° F.
Tuesday
. High: 59° F.
Wednesday
. High: 55° F.
Thursday
. High: 60° F.
Friday
. High: 68° F.
Saturday
. High: 57° F.
Sunday
. High: 68° F.
Monday
. High: 75° F.

Click here for Marine Information
Scientific forecaster discussion (NWS)

Units: English | Metric

Find the Weather for any City, State or Zipcode, or Country:

U.S. State List | Severe Weather | Tropical Storms | Ski Conditions
United States | Canada | Central America | South America | Asia | Europe | Australia | Africa | Islands

Weather Underground

© Copyright 2018
The Weather Company, LLC